Time;durP1;ratioP1;P1;durP2;ratioP2;P2;SDS_P1;SDS_P2;PMS_P1;PMS_P2;Temp;Humidity;BMP_temperature;BMP_pressure;BME280_temperature;BME280_humidity;BME280_pressure;Samples;Min_cycle;Max_cycle;Signal;HPM_P1;HPM_P2
2022/03/21 00:01:38;;;;;;;24.20;13.27;;;4.80;1.00;;;;;;5053234;28;20275;-82
2022/03/21 00:04:05;;;;;;;21.93;12.37;;;4.70;1.00;;;;;;5052745;28;20189;-84
2022/03/21 00:06:45;;;;;;;19.80;11.80;;;4.70;1.00;;;;;;5065431;28;20179;-87
2022/03/21 00:09:16;;;;;;;27.70;13.10;;;4.70;1.00;;;;;;5076982;28;20272;-84
2022/03/21 00:14:42;;;;;;;27.90;13.77;;;4.60;1.00;;;;;;5075007;28;20220;-86
2022/03/21 00:17:10;;;;;;;26.43;12.47;;;4.50;1.00;;;;;;5072351;28;20236;-84
2022/03/21 00:19:37;;;;;;;20.77;11.97;;;4.50;1.00;;;;;;5052688;28;20222;-85
2022/03/21 00:22:04;;;;;;;24.50;12.33;;;4.50;1.00;;;;;;5052187;28;20193;-82
2022/03/21 00:24:31;;;;;;;23.20;13.37;;;4.50;1.00;;;;;;5052534;28;20253;-82
2022/03/21 00:27:00;;;;;;;26.87;14.73;;;4.40;1.00;;;;;;5052501;28;20193;-82
2022/03/21 00:29:27;;;;;;;27.77;14.57;;;4.40;1.00;;;;;;5052558;28;20202;-82
2022/03/21 00:31:54;;;;;;;27.27;14.23;;;4.40;1.00;;;;;;5052182;28;20198;-83
2022/03/21 00:34:21;;;;;;;29.40;14.50;;;4.30;1.00;;;;;;5052335;28;20216;-83
2022/03/21 00:36:49;;;;;;;26.00;13.00;;;4.30;1.00;;;;;;5052310;28;20576;-83
2022/03/21 00:39:17;;;;;;;24.27;13.30;;;4.20;1.00;;;;;;5052553;28;20278;-83
2022/03/21 00:41:44;;;;;;;25.23;12.70;;;4.20;1.00;;;;;;5052056;28;20193;-80
2022/03/21 00:44:13;;;;;;;21.37;12.07;;;4.10;1.00;;;;;;5052543;28;20200;-83
2022/03/21 00:46:40;;;;;;;23.23;13.03;;;4.00;1.00;;;;;;5052467;28;20262;-81
2022/03/21 00:49:08;;;;;;;24.23;12.57;;;4.00;1.00;;;;;;5052460;28;20201;-82
2022/03/21 00:51:35;;;;;;;25.90;12.60;;;3.90;1.00;;;;;;5053107;28;20195;-83
2022/03/21 00:54:02;;;;;;;22.70;12.70;;;3.80;1.00;;;;;;5056601;28;20264;-81
2022/03/21 00:56:29;;;;;;;24.30;12.47;;;3.80;1.00;;;;;;5056170;28;20223;-83
2022/03/21 00:58:56;;;;;;;22.60;13.50;;;3.70;1.00;;;;;;5056383;28;20594;-83
2022/03/21 01:01:24;;;;;;;28.03;13.20;;;3.70;1.00;;;;;;5056151;28;20250;-82
2022/03/21 01:03:51;;;;;;;26.40;13.63;;;3.70;1.00;;;;;;5055971;28;20197;-83
2022/03/21 01:06:18;;;;;;;23.53;12.33;;;3.70;1.00;;;;;;5055862;28;20196;-82
2022/03/21 01:08:45;;;;;;;25.27;13.83;;;3.60;1.00;;;;;;5055950;28;20570;-82
2022/03/21 01:11:13;;;;;;;25.57;12.40;;;3.60;1.00;;;;;;5056070;28;20247;-81
2022/03/21 01:13:42;;;;;;;25.13;12.60;;;3.60;1.00;;;;;;5056315;28;20198;-83
2022/03/21 01:16:09;;;;;;;22.13;12.77;;;3.60;1.00;;;;;;5055682;28;20751;-80
2022/03/21 01:18:38;;;;;;;24.07;13.13;;;3.50;1.00;;;;;;5056106;28;20189;-82
2022/03/21 01:21:05;;;;;;;24.27;13.10;;;3.50;1.00;;;;;;5055871;28;20612;-81
2022/03/21 01:23:32;;;;;;;24.53;13.47;;;3.40;1.00;;;;;;5055818;28;20197;-83
2022/03/21 01:25:59;;;;;;;23.10;12.87;;;3.40;1.00;;;;;;5055901;28;20246;-83
2022/03/21 01:28:26;;;;;;;21.50;12.60;;;3.40;1.00;;;;;;5055725;28;20192;-82
2022/03/21 01:30:53;;;;;;;26.10;13.60;;;3.40;1.00;;;;;;5055122;28;20668;-82
2022/03/21 01:33:20;;;;;;;20.97;11.53;;;3.30;1.00;;;;;;5055878;28;20589;-82
2022/03/21 01:35:49;;;;;;;23.00;13.37;;;3.30;1.00;;;;;;5055189;28;20225;-84
2022/03/21 01:38:16;;;;;;;27.63;13.30;;;3.30;1.00;;;;;;5055933;28;20228;-81
2022/03/21 01:40:43;;;;;;;26.07;12.57;;;3.30;1.00;;;;;;5055603;28;20242;-83
2022/03/21 01:43:11;;;;;;;24.33;12.67;;;3.30;1.00;;;;;;5055500;28;20192;-81
2022/03/21 01:45:38;;;;;;;26.30;13.00;;;3.30;1.00;;;;;;5055583;28;20200;-81
2022/03/21 01:48:05;;;;;;;26.77;13.33;;;3.30;1.00;;;;;;5055354;28;20254;-81
2022/03/21 01:50:32;;;;;;;25.60;12.60;;;3.30;1.00;;;;;;5055214;28;20204;-81
2022/03/21 01:55:46;;;;;;;23.37;13.03;;;3.30;1.00;;;;;;5035188;28;20201;-82
2022/03/21 01:58:14;;;;;;;26.03;12.90;;;3.30;1.00;;;;;;5035598;28;20177;-82
2022/03/21 02:00:42;;;;;;;25.27;13.07;;;3.40;1.00;;;;;;5049800;28;20221;-83
2022/03/21 02:03:09;;;;;;;24.00;12.47;;;3.40;1.00;;;;;;5054677;28;20201;-83
2022/03/21 02:05:39;;;;;;;24.37;13.40;;;3.40;1.00;;;;;;5055257;28;20196;-82
2022/03/21 02:08:07;;;;;;;25.17;13.13;;;3.40;1.00;;;;;;5055032;28;20242;-83
2022/03/21 02:10:34;;;;;;;21.90;12.27;;;3.40;1.00;;;;;;5054658;28;20189;-83
2022/03/21 02:13:02;;;;;;;25.53;13.50;;;3.50;1.00;;;;;;5054954;28;20200;-83
2022/03/21 02:15:29;;;;;;;23.60;12.83;;;3.50;1.00;;;;;;5054795;28;20217;-82
2022/03/21 02:18:01;;;;;;;21.27;11.93;;;3.50;1.00;;;;;;5054940;28;20261;-82
2022/03/21 02:20:30;;;;;;;25.20;12.33;;;3.50;1.00;;;;;;5054946;28;20185;-83
2022/03/21 02:23:07;;;;;;;25.10;13.20;;;3.50;1.00;;;;;;5054444;28;20208;-81
2022/03/21 02:25:36;;;;;;;22.43;12.87;;;3.50;1.00;;;;;;5054554;28;20184;-83
2022/03/21 02:28:07;;;;;;;24.13;12.33;;;3.50;1.00;;;;;;5054401;28;20588;-82
2022/03/21 02:30:35;;;;;;;25.50;13.03;;;3.40;1.00;;;;;;5054014;28;20190;-84
2022/03/21 02:33:03;;;;;;;27.00;12.43;;;3.40;1.00;;;;;;5054405;28;20193;-81
2022/03/21 02:35:32;;;;;;;22.77;12.73;;;3.40;1.00;;;;;;5054087;28;20680;-82
2022/03/21 02:37:59;;;;;;;26.57;13.57;;;3.40;1.00;;;;;;5054455;28;20228;-82
2022/03/21 02:40:26;;;;;;;23.97;13.03;;;3.40;1.00;;;;;;5054454;28;20271;-80
2022/03/21 02:42:55;;;;;;;27.67;14.37;;;3.30;1.00;;;;;;5054071;28;20709;-82
2022/03/21 02:45:22;;;;;;;33.83;13.87;;;3.30;1.00;;;;;;5054469;28;20204;-81
2022/03/21 02:47:49;;;;;;;25.63;12.90;;;3.20;1.00;;;;;;5054502;28;20196;-82
2022/03/21 02:50:18;;;;;;;26.60;13.57;;;3.20;1.00;;;;;;5054585;28;20199;-81
2022/03/21 02:52:48;;;;;;;25.87;14.73;;;3.20;1.00;;;;;;5054115;28;20648;-83
2022/03/21 02:55:15;;;;;;;27.90;14.93;;;3.20;1.00;;;;;;5054096;28;20216;-82
2022/03/21 02:57:42;;;;;;;25.93;13.70;;;3.20;1.00;;;;;;5053881;28;20250;-82
2022/03/21 03:00:12;;;;;;;27.40;14.43;;;3.20;1.00;;;;;;5053843;28;20250;-84
2022/03/21 03:02:39;;;;;;;24.70;13.77;;;3.10;1.00;;;;;;5053668;28;20667;-81
2022/03/21 03:05:07;;;;;;;28.10;13.97;;;3.10;1.00;;;;;;5053958;28;20276;-81
2022/03/21 03:07:35;;;;;;;24.90;13.67;;;3.10;1.00;;;;;;5053758;28;20608;-82
2022/03/21 03:10:02;;;;;;;27.73;14.40;;;3.00;1.00;;;;;;5053578;28;20716;-82
2022/03/21 03:12:29;;;;;;;25.37;14.23;;;3.00;1.00;;;;;;5053491;28;20254;-83
2022/03/21 03:14:56;;;;;;;27.43;15.00;;;2.90;1.00;;;;;;5052945;28;20189;-82
2022/03/21 03:17:24;;;;;;;28.40;14.30;;;2.90;1.00;;;;;;5053892;28;20591;-82
2022/03/21 03:19:51;;;;;;;28.30;14.87;;;2.90;1.00;;;;;;5053602;28;20649;-83
2022/03/21 03:22:19;;;;;;;26.00;14.50;;;2.80;1.00;;;;;;5053509;28;20668;-82
2022/03/21 03:24:47;;;;;;;25.77;14.13;;;2.80;1.00;;;;;;5053396;28;20196;-82
2022/03/21 03:27:14;;;;;;;28.37;15.53;;;2.70;1.00;;;;;;5053612;28;20292;-81
2022/03/21 03:29:41;;;;;;;28.83;15.40;;;2.80;1.00;;;;;;5053012;28;20712;-81
2022/03/21 03:32:09;;;;;;;26.07;14.47;;;2.70;1.00;;;;;;5053156;28;20197;-81
2022/03/21 03:34:37;;;;;;;26.00;13.80;;;2.70;1.00;;;;;;5053418;28;20196;-85
2022/03/21 03:37:05;;;;;;;24.30;13.30;;;2.70;1.00;;;;;;5053076;28;20220;-83
2022/03/21 03:39:32;;;;;;;29.97;15.17;;;2.70;1.00;;;;;;5053480;28;20188;-82
2022/03/21 03:41:59;;;;;;;25.53;13.67;;;2.70;1.00;;;;;;5053039;28;20594;-84
2022/03/21 03:44:26;;;;;;;26.77;14.53;;;2.60;1.00;;;;;;5053193;28;20242;-82
2022/03/21 03:46:53;;;;;;;28.93;14.57;;;2.60;1.00;;;;;;5053428;28;20250;-84
2022/03/21 03:49:21;;;;;;;25.57;15.50;;;2.60;1.00;;;;;;5053171;28;20688;-83
2022/03/21 03:51:49;;;;;;;27.13;15.20;;;2.60;1.00;;;;;;5053055;28;20208;-80
2022/03/21 03:54:16;;;;;;;24.27;13.57;;;2.50;1.00;;;;;;5052718;28;20201;-84
2022/03/21 03:56:43;;;;;;;28.37;15.20;;;2.50;1.00;;;;;;5052640;28;20677;-83
2022/03/21 03:59:10;;;;;;;28.33;15.00;;;2.50;1.00;;;;;;5052129;28;20601;-82
2022/03/21 04:01:38;;;;;;;27.43;14.70;;;2.50;1.00;;;;;;5052958;28;20197;-81
2022/03/21 04:04:05;;;;;;;28.47;15.27;;;2.40;1.00;;;;;;5053006;28;20602;-84
2022/03/21 04:06:32;;;;;;;27.03;14.33;;;2.40;1.00;;;;;;5052935;28;20196;-81
2022/03/21 04:09:01;;;;;;;33.40;15.20;;;2.30;1.00;;;;;;5052517;28;20743;-81
2022/03/21 04:11:28;;;;;;;26.57;15.40;;;2.30;1.00;;;;;;5052351;28;20591;-84
2022/03/21 04:13:55;;;;;;;29.83;15.13;;;2.30;1.00;;;;;;5053151;28;20189;-83
2022/03/21 04:16:22;;;;;;;27.70;14.70;;;2.20;1.00;;;;;;5052938;28;20278;-81
2022/03/21 04:18:49;;;;;;;36.23;15.33;;;2.20;1.00;;;;;;5052382;28;20250;-83
2022/03/21 04:21:16;;;;;;;28.93;14.10;;;2.10;1.00;;;;;;5052393;28;20228;-83
2022/03/21 04:23:43;;;;;;;24.27;13.87;;;2.10;1.00;;;;;;5052532;28;20262;-82
2022/03/21 04:26:12;;;;;;;25.87;14.63;;;2.10;1.00;;;;;;5051831;28;20262;-83
2022/03/21 04:28:39;;;;;;;26.20;14.50;;;2.10;1.00;;;;;;5052019;28;20200;-80
2022/03/21 04:31:06;;;;;;;29.47;15.33;;;2.10;1.00;;;;;;5052123;28;20192;-82
2022/03/21 04:33:33;;;;;;;27.13;14.50;;;2.10;1.00;;;;;;5052582;28;20254;-81
2022/03/21 04:36:00;;;;;;;27.80;15.30;;;2.00;1.00;;;;;;5052012;28;20632;-84
2022/03/21 04:38:30;;;;;;;28.40;14.80;;;2.00;1.00;;;;;;5052374;28;20220;-83
2022/03/21 04:40:57;;;;;;;26.47;15.07;;;2.00;1.00;;;;;;5075811;28;20204;-80
2022/03/21 04:43:25;;;;;;;30.17;15.37;;;2.00;1.00;;;;;;5052310;28;20242;-83
2022/03/21 04:45:52;;;;;;;26.43;14.63;;;1.90;1.00;;;;;;5052441;28;20243;-80
2022/03/21 04:48:20;;;;;;;26.93;14.70;;;2.00;1.00;;;;;;5052241;28;20200;-82
2022/03/21 04:50:47;;;;;;;27.50;15.07;;;2.00;1.00;;;;;;5052369;28;20192;-80
2022/03/21 04:53:14;;;;;;;26.83;14.60;;;2.00;1.00;;;;;;5059073;28;20196;-81
2022/03/21 04:55:42;;;;;;;27.23;14.13;;;2.10;1.00;;;;;;5051933;28;20200;-81
2022/03/21 04:58:09;;;;;;;25.23;13.70;;;2.10;1.00;;;;;;5052176;28;20197;-82
2022/03/21 05:00:38;;;;;;;26.70;14.57;;;2.10;1.00;;;;;;5049797;28;20706;-85
2022/03/21 05:03:07;;;;;;;33.60;14.83;;;2.10;1.00;;;;;;5053286;28;20189;-83
2022/03/21 05:05:35;;;;;;;31.60;15.40;;;2.20;1.00;;;;;;5055675;28;20586;-81
2022/03/21 05:08:03;;;;;;;28.40;14.57;;;2.20;1.00;;;;;;5057022;28;20220;-84
2022/03/21 05:10:31;;;;;;;29.80;14.70;;;2.20;1.00;;;;;;5055702;28;20584;-82
2022/03/21 05:13:01;;;;;;;29.63;14.83;;;2.20;1.00;;;;;;5062050;28;20200;-86
2022/03/21 05:15:28;;;;;;;32.03;15.03;;;2.20;1.00;;;;;;5057600;28;20707;-83
2022/03/21 05:17:56;;;;;;;32.67;15.47;;;2.10;1.00;;;;;;5059652;28;20262;-82
2022/03/21 05:20:29;;;;;;;33.37;16.37;;;2.10;1.00;;;;;;5058148;28;20581;-85
2022/03/21 05:31:16;;;;;;;28.70;14.83;;;2.00;1.00;;;;;;5060184;28;20179;-85
2022/03/21 05:36:29;;;;;;;26.97;14.60;;;2.00;1.00;;;;;;5054454;28;20208;-84
2022/03/21 05:38:57;;;;;;;30.50;15.87;;;2.10;1.00;;;;;;5059244;28;20216;-86
2022/03/21 05:41:25;;;;;;;31.17;16.63;;;2.10;1.00;;;;;;5060733;28;20192;-84
2022/03/21 05:43:52;;;;;;;28.77;15.67;;;2.10;1.00;;;;;;5060784;28;20217;-83
2022/03/21 05:46:20;;;;;;;33.50;16.27;;;2.20;1.00;;;;;;5060828;28;20250;-86
2022/03/21 05:48:52;;;;;;;27.80;14.10;;;2.30;1.00;;;;;;5060811;28;20653;-82
2022/03/21 05:51:20;;;;;;;28.73;14.23;;;2.40;1.00;;;;;;5060328;28;20169;-84
2022/03/21 05:53:48;;;;;;;26.00;14.07;;;2.90;1.00;;;;;;5060997;28;20241;-83
2022/03/21 05:56:16;;;;;;;32.67;16.33;;;3.90;1.00;;;;;;5058862;28;20220;-84
2022/03/21 05:58:43;;;;;;;32.07;17.33;;;5.10;1.00;;;;;;5059786;28;20189;-81
2022/03/21 06:01:15;;;;;;;27.50;15.43;;;6.30;1.00;;;;;;5057717;28;20195;-85
2022/03/21 06:03:43;;;;;;;29.03;15.10;;;7.50;1.00;;;;;;5056145;28;20189;-82
2022/03/21 06:06:11;;;;;;;26.57;14.87;;;8.40;1.00;;;;;;5056087;28;20277;-82
2022/03/21 06:08:42;;;;;;;24.20;14.80;;;9.10;1.00;;;;;;5072199;28;20713;-87
2022/03/21 06:11:09;;;;;;;28.67;15.93;;;9.60;1.00;;;;;;5057745;28;20196;-83
2022/03/21 06:13:39;;;;;;;26.00;15.67;;;10.00;1.00;;;;;;5062628;28;20198;-82
2022/03/21 06:16:12;;;;;;;24.93;15.23;;;10.50;1.00;;;;;;5060793;28;20314;-85
2022/03/21 06:18:41;;;;;;;28.77;16.00;;;11.00;1.00;;;;;;5062413;28;20194;-83
2022/03/21 06:21:11;;;;;;;28.57;15.57;;;11.60;1.00;;;;;;5061891;28;20206;-82
2022/03/21 06:23:39;;;;;;;24.87;15.80;;;12.10;1.00;;;;;;5061574;28;20651;-82
2022/03/21 06:26:07;;;;;;;29.33;16.50;;;12.50;1.00;;;;;;5064552;28;20196;-84
2022/03/21 06:28:35;;;;;;;29.53;16.03;;;12.90;1.00;;;;;;5065269;28;20194;-86
2022/03/21 06:31:03;;;;;;;32.60;16.37;;;13.10;1.00;;;;;;5054407;28;20192;-83
2022/03/21 06:33:32;;;;;;;24.23;16.20;;;13.50;1.00;;;;;;5057437;28;20665;-84
2022/03/21 06:36:00;;;;;;;28.60;16.60;;;14.00;1.00;;;;;;5062384;28;20198;-83
2022/03/21 06:38:33;;;;;;;26.70;16.13;;;14.50;1.00;;;;;;5060340;28;20602;-82
2022/03/21 06:41:01;;;;;;;27.90;16.65;;;14.90;1.00;;;;;;5062177;28;20243;-86
2022/03/21 06:43:29;;;;;;;24.95;16.08;;;15.20;1.00;;;;;;5058337;28;20189;-85
2022/03/21 06:45:59;;;;;;;28.30;17.40;;;15.60;1.00;;;;;;5064949;28;20271;-81
2022/03/21 06:48:29;;;;;;;28.88;17.33;;;15.90;1.00;;;;;;5056324;28;20197;-84
2022/03/21 06:50:56;;;;;;;32.88;17.83;;;15.90;1.00;;;;;;5056373;28;20232;-83
2022/03/21 06:53:24;;;;;;;28.25;16.98;;;16.00;1.00;;;;;;5057254;28;20193;-82
2022/03/21 06:55:52;;;;;;;29.80;17.75;;;16.20;1.00;;;;;;5057669;28;20201;-87
2022/03/21 06:58:20;;;;;;;32.45;17.67;;;16.40;1.00;;;;;;5055563;28;20209;-81
2022/03/21 07:00:48;;;;;;;31.30;17.98;;;16.20;1.00;;;;;;5059919;28;20185;-84
2022/03/21 07:03:16;;;;;;;28.05;17.55;;;16.30;1.00;;;;;;5057093;28;20194;-85
2022/03/21 07:05:44;;;;;;;28.13;16.73;;;16.50;1.00;;;;;;5055801;28;20201;-82
2022/03/21 07:08:14;;;;;;;28.25;17.92;;;16.70;1.00;;;;;;5057158;28;20188;-86
2022/03/21 07:10:43;;;;;;;28.95;18.13;;;17.10;1.00;;;;;;5054423;28;20183;-82
2022/03/21 07:13:13;;;;;;;28.35;18.05;;;17.40;1.00;;;;;;5055328;28;20272;-85
2022/03/21 07:15:40;;;;;;;29.60;18.30;;;17.50;1.00;;;;;;5055409;28;20191;-83
2022/03/21 07:18:07;;;;;;;;;;;17.70;1.00;;;;;;5057086;28;20326;-82
2022/03/21 07:20:34;;;;;;;29.70;17.90;;;18.00;1.00;;;;;;5056652;28;20225;-80
2022/03/21 07:23:02;;;;;;;29.02;17.77;;;18.20;1.00;;;;;;5058972;28;20185;-85
2022/03/21 07:25:29;;;;;;;28.48;18.65;;;18.30;1.00;;;;;;5058226;28;20212;-83
2022/03/21 07:27:57;;;;;;;34.60;19.63;;;18.60;1.00;;;;;;5043870;28;20720;-87
2022/03/21 07:30:26;;;;;;;29.40;18.60;;;18.70;1.00;;;;;;5060249;28;20181;-83
2022/03/21 07:32:53;;;;;;;27.25;18.70;;;18.70;1.00;;;;;;5061749;28;20196;-84
2022/03/21 07:35:26;;;;;;;27.80;19.13;;;18.60;1.00;;;;;;5057250;28;20181;-81
2022/03/21 07:37:56;;;;;;;30.98;19.92;;;18.90;1.00;;;;;;5060111;28;20236;-82
2022/03/21 07:40:24;;;;;;;28.77;18.98;;;19.10;1.00;;;;;;5061968;28;20221;-83
2022/03/21 07:42:51;;;;;;;31.58;18.77;;;19.50;1.00;;;;;;5059207;28;20235;-82
2022/03/21 07:48:16;;;;;;;29.15;19.77;;;20.10;1.00;;;;;;4978644;28;20292;-85
2022/03/21 07:50:43;;;;;;;31.55;20.90;;;20.40;1.00;;;;;;4987602;28;20624;-82
2022/03/21 07:53:10;;;;;;;30.08;20.75;;;20.70;1.00;;;;;;5061879;28;20185;-83
2022/03/21 07:55:37;;;;;;;32.65;23.52;;;21.00;1.00;;;;;;5056340;28;20197;-85
2022/03/21 07:58:04;;;;;;;28.27;20.80;;;21.20;1.00;;;;;;5058402;28;20204;-83
2022/03/21 08:00:34;;;;;;;27.85;19.85;;;21.30;1.00;;;;;;5057694;28;20227;-84
2022/03/21 08:03:02;;;;;;;29.27;20.20;;;21.30;1.00;;;;;;5058198;28;20250;-84
2022/03/21 08:05:31;;;;;;;28.63;19.40;;;21.60;1.00;;;;;;5058934;28;20621;-85
2022/03/21 08:07:58;;;;;;;30.52;20.88;;;21.60;1.00;;;;;;5055206;28;20216;-83
2022/03/21 08:10:25;;;;;;;31.52;21.02;;;21.70;1.00;;;;;;5060533;28;20207;-81
2022/03/21 08:12:55;;;;;;;31.77;22.80;;;22.10;1.00;;;;;;5055876;28;20197;-84
2022/03/21 08:15:22;;;;;;;29.88;20.73;;;22.30;1.00;;;;;;5057575;28;20204;-84
2022/03/21 08:17:54;;;;;;;30.35;22.38;;;22.20;1.00;;;;;;5056331;28;20247;-84
2022/03/21 08:20:21;;;;;;;60.83;47.65;;;22.00;1.00;;;;;;5054616;28;20182;-83
2022/03/21 08:22:52;;;;;;;40.65;23.42;;;22.10;1.00;;;;;;5054917;28;20246;-83
2022/03/21 08:25:20;;;;;;;32.08;21.45;;;22.30;1.00;;;;;;5055589;28;20208;-84
2022/03/21 08:27:48;;;;;;;30.13;20.85;;;22.40;1.00;;;;;;5057544;28;20627;-84
2022/03/21 08:30:18;;;;;;;34.75;21.50;;;22.40;1.00;;;;;;5057069;28;20192;-85
2022/03/21 08:32:45;;;;;;;30.52;21.38;;;22.10;1.00;;;;;;5059390;28;20255;-85
2022/03/21 08:35:13;;;;;;;28.75;20.23;;;21.80;1.00;;;;;;5062816;28;20247;-84
2022/03/21 08:37:43;;;;;;;30.25;19.52;;;21.80;1.00;;;;;;5066197;28;20283;-88
2022/03/21 08:40:13;;;;;;;29.95;19.85;;;21.80;1.00;;;;;;5058358;28;20187;-82
2022/03/21 08:42:40;;;;;;;32.42;19.60;;;21.90;1.00;;;;;;5062108;28;20211;-84
2022/03/21 08:45:12;;;;;;;27.70;18.98;;;22.10;1.00;;;;;;5059804;28;20197;-86
2022/03/21 08:47:40;;;;;;;30.52;19.08;;;22.20;1.00;;;;;;5066081;28;20228;-84
2022/03/21 08:50:08;;;;;;;25.90;18.95;;;21.90;1.00;;;;;;5064305;28;20212;-83
2022/03/21 08:52:35;;;;;;;26.73;19.05;;;21.70;1.00;;;;;;5057740;28;20315;-83
2022/03/21 08:55:09;;;;;;;30.05;19.42;;;21.90;1.00;;;;;;5061777;28;20205;-87
2022/03/21 08:57:38;;;;;;;33.65;21.75;;;22.10;1.00;;;;;;5057212;28;20188;-83
2022/03/21 09:00:06;;;;;;;30.33;21.88;;;22.10;1.00;;;;;;5059668;28;20234;-84
2022/03/21 09:02:34;;;;;;;30.92;21.27;;;22.30;1.00;;;;;;5059661;28;20173;-84
2022/03/21 09:05:03;;;;;;;26.08;19.67;;;22.50;1.00;;;;;;5053595;28;20268;-83
2022/03/21 09:07:30;;;;;;;28.05;19.40;;;22.40;1.00;;;;;;5056872;28;20212;-83
2022/03/21 09:09:57;;;;;;;27.90;19.08;;;22.50;1.00;;;;;;5054252;28;20266;-82
2022/03/21 09:12:24;;;;;;;36.25;24.50;;;22.60;1.00;;;;;;5054546;28;20559;-84
2022/03/21 09:14:53;;;;;;;30.23;20.70;;;22.40;1.00;;;;;;5058006;28;20193;-82
2022/03/21 09:17:20;;;;;;;30.30;22.08;;;22.20;1.00;;;;;;5057022;28;20672;-83
2022/03/21 09:19:47;;;;;;;37.35;23.80;;;21.90;1.00;;;;;;5057731;28;20219;-84
2022/03/21 09:22:14;;;;;;;31.45;21.85;;;21.80;1.00;;;;;;5060768;28;20196;-82
2022/03/21 09:24:41;;;;;;;27.80;19.02;;;21.80;1.00;;;;;;5056423;28;20197;-81
2022/03/21 09:27:10;;;;;;;28.73;19.33;;;21.80;1.00;;;;;;5057085;28;20213;-81
2022/03/21 09:29:38;;;;;;;27.60;18.60;;;21.50;1.00;;;;;;5058245;28;20251;-82
2022/03/21 09:32:07;;;;;;;29.35;18.60;;;21.50;1.00;;;;;;5058051;28;20184;-82
2022/03/21 09:34:39;;;;;;;26.40;18.77;;;21.30;1.00;;;;;;5058356;28;20248;-82
2022/03/21 09:37:09;;;;;;;25.90;19.08;;;21.20;1.00;;;;;;5058310;28;20236;-85
2022/03/21 09:39:36;;;;;;;28.08;18.60;;;20.90;1.00;;;;;;5062122;28;20208;-84
2022/03/21 09:42:04;;;;;;;28.92;21.25;;;20.70;1.00;;;;;;5057590;28;20250;-81
2022/03/21 09:44:31;;;;;;;25.27;18.67;;;20.30;1.00;;;;;;5060512;28;20224;-82
2022/03/21 09:48:08;;;;;;;31.08;19.65;;;20.10;1.00;;;;;;5062644;28;20212;-81
2022/03/21 09:50:04;;;;;;;26.20;18.35;;;19.80;1.00;;;;;;5063707;28;20173;-83
2022/03/21 09:52:34;;;;;;;27.17;18.55;;;19.80;1.00;;;;;;5064862;28;20177;-87
2022/03/21 09:55:02;;;;;;;29.98;19.70;;;19.30;1.00;;;;;;5062825;28;20186;-83
2022/03/21 09:57:32;;;;;;;29.20;18.65;;;18.90;1.00;;;;;;5064560;28;20201;-86
2022/03/21 09:59:59;;;;;;;27.50;17.98;;;18.30;1.00;;;;;;5060079;28;20190;-83
2022/03/21 10:02:27;;;;;;;39.80;21.17;;;17.90;1.00;;;;;;5061654;28;20224;-83
2022/03/21 10:05:01;;;;;;;29.48;19.55;;;17.50;1.00;;;;;;5063818;28;20199;-83
2022/03/21 10:07:29;;;;;;;32.40;19.20;;;17.10;1.00;;;;;;5060141;28;20205;-82
2022/03/21 10:10:10;;;;;;;32.63;19.00;;;16.80;1.00;;;;;;5058635;28;20196;-81
2022/03/21 10:12:38;;;;;;;30.73;19.07;;;16.50;1.00;;;;;;5058533;28;20704;-81
2022/03/21 10:15:09;;;;;;;31.47;18.83;;;16.40;1.00;;;;;;5061986;28;20255;-81
2022/03/21 10:17:36;;;;;;;31.80;19.43;;;16.10;1.00;;;;;;5056115;28;20184;-82
2022/03/21 10:20:08;;;;;;;29.73;18.20;;;16.00;1.00;;;;;;5056369;28;20203;-82
2022/03/21 10:22:43;;;;;;;31.13;20.47;;;15.70;1.00;;;;;;5057467;28;20190;-82
2022/03/21 10:25:15;;;;;;;30.07;18.53;;;15.50;1.00;;;;;;5056275;28;20179;-82
2022/03/21 10:27:43;;;;;;;32.07;18.87;;;15.50;1.00;;;;;;5061699;28;20216;-81
2022/03/21 10:30:13;;;;;;;30.97;18.43;;;15.30;1.00;;;;;;5058649;28;20199;-82
2022/03/21 10:32:42;;;;;;;29.40;16.47;;;15.10;1.00;;;;;;5057986;28;20294;-82
2022/03/21 10:35:14;;;;;;;29.40;18.03;;;15.00;1.00;;;;;;5057240;28;20192;-81
2022/03/21 10:37:47;;;;;;;25.10;15.73;;;14.80;1.00;;;;;;5061429;28;20248;-85
2022/03/21 10:40:25;;;;;;;25.60;16.73;;;14.60;1.00;;;;;;5061829;28;20185;-81
2022/03/21 10:43:13;;;;;;;23.77;15.83;;;14.50;1.00;;;;;;5055256;28;20185;-82
2022/03/21 10:45:48;;;;;;;24.70;16.37;;;14.40;1.00;;;;;;5058259;28;20181;-86
2022/03/21 10:48:18;;;;;;;25.63;16.33;;;14.30;1.00;;;;;;5060715;28;20224;-85
2022/03/21 10:50:48;;;;;;;29.37;17.17;;;14.20;1.00;;;;;;5056844;28;20204;-81
2022/03/21 10:53:17;;;;;;;27.50;14.87;;;14.10;1.00;;;;;;5060661;28;20199;-84
2022/03/21 10:55:53;;;;;;;24.53;15.27;;;14.10;1.00;;;;;;5068270;28;20196;-86
2022/03/21 10:58:37;;;;;;;23.40;15.97;;;14.10;1.00;;;;;;5058692;28;20174;-81
2022/03/21 11:01:14;;;;;;;25.57;16.17;;;14.20;1.00;;;;;;5059221;28;20199;-82
2022/03/21 11:03:43;;;;;;;25.87;15.77;;;14.30;1.00;;;;;;5065041;28;20161;-81
2022/03/21 11:06:12;;;;;;;24.70;15.63;;;14.40;1.00;;;;;;5063135;28;20655;-83
2022/03/21 11:08:50;;;;;;;25.70;16.57;;;14.40;1.00;;;;;;5067053;28;20224;-81
2022/03/21 11:11:23;;;;;;;29.83;17.17;;;14.40;1.00;;;;;;5057802;28;20182;-84
2022/03/21 11:13:53;;;;;;;27.80;16.17;;;14.30;1.00;;;;;;5061862;28;20253;-81
2022/03/21 11:16:21;;;;;;;26.73;17.13;;;14.30;1.00;;;;;;5062229;28;20203;-83
2022/03/21 11:18:49;;;;;;;27.03;16.37;;;14.30;1.00;;;;;;5056293;28;20723;-81
2022/03/21 11:21:20;;;;;;;24.47;14.97;;;14.30;1.00;;;;;;5060076;28;20193;-83
2022/03/21 11:23:48;;;;;;;27.30;15.10;;;14.40;1.00;;;;;;5057934;28;20260;-82
2022/03/21 11:26:27;;;;;;;29.53;15.37;;;14.40;1.00;;;;;;5053630;28;20199;-81
2022/03/21 11:29:17;;;;;;;28.77;13.87;;;14.30;1.00;;;;;;5060320;28;20259;-85
2022/03/21 11:32:22;;;;;;;24.20;15.57;;;14.30;1.00;;;;;;5055976;28;20196;-82
2022/03/21 11:35:01;;;;;;;31.90;15.00;;;14.20;1.00;;;;;;5054263;28;20211;-82
2022/03/21 11:37:31;;;;;;;31.37;19.63;;;14.20;1.00;;;;;;5036338;28;20237;-81
2022/03/21 11:40:34;;;;;;;28.07;15.97;;;14.20;1.00;;;;;;5034378;28;20664;-81
2022/03/21 11:43:29;;;;;;;25.30;14.77;;;14.20;1.00;;;;;;5035628;28;20186;-81
2022/03/21 11:45:57;;;;;;;23.33;14.20;;;14.10;1.00;;;;;;5037500;28;20189;-81
2022/03/21 11:48:37;;;;;;;23.17;13.60;;;14.10;1.00;;;;;;5038919;28;20224;-84
2022/03/21 11:51:38;;;;;;;23.23;13.37;;;14.00;1.00;;;;;;5038029;28;20276;-82
2022/03/21 11:54:25;;;;;;;18.43;11.97;;;14.00;1.00;;;;;;5035228;28;20212;-82
2022/03/21 11:57:01;;;;;;;19.43;12.97;;;14.00;1.00;;;;;;5042337;28;20182;-83
2022/03/21 12:00:01;;;;;;;24.53;12.53;;;14.00;1.00;;;;;;5040277;28;20250;-83
2022/03/21 12:02:56;;;;;;;23.30;13.50;;;14.10;1.00;;;;;;5043264;28;20193;-81
2022/03/21 12:05:56;;;;;;;23.23;12.87;;;14.00;1.00;;;;;;5059106;28;20663;-81
2022/03/21 12:08:50;;;;;;;20.30;12.83;;;14.00;1.00;;;;;;5059159;28;20248;-80
2022/03/21 12:12:05;;;;;;;20.10;12.87;;;13.90;1.00;;;;;;5061510;28;20181;-82
2022/03/21 12:14:54;;;;;;;21.03;13.37;;;14.00;1.00;;;;;;5060481;28;20192;-85
2022/03/21 12:17:33;;;;;;;20.43;13.30;;;14.00;1.00;;;;;;5059940;28;20233;-84
2022/03/21 12:20:12;;;;;;;20.00;13.30;;;14.00;1.00;;;;;;5064274;28;20185;-85
2022/03/21 12:22:47;;;;;;;21.30;13.77;;;14.00;1.00;;;;;;5060388;28;20182;-82
2022/03/21 12:25:41;;;;;;;19.80;13.27;;;14.00;1.00;;;;;;5056503;28;20181;-82
2022/03/21 12:28:20;;;;;;;21.43;12.33;;;13.90;1.00;;;;;;5055701;28;20205;-82
2022/03/21 12:30:49;;;;;;;23.73;14.10;;;13.90;1.00;;;;;;5057093;28;20177;-83
2022/03/21 12:33:29;;;;;;;24.83;14.17;;;13.80;1.00;;;;;;5056605;28;20220;-83
2022/03/21 12:35:58;;;;;;;23.97;14.23;;;13.80;1.00;;;;;;5054459;28;20181;-81
2022/03/21 12:38:28;;;;;;;22.03;13.43;;;13.80;1.00;;;;;;5055303;28;20231;-82
2022/03/21 12:41:00;;;;;;;21.27;14.00;;;13.90;1.00;;;;;;5057771;28;20197;-84
2022/03/21 12:43:32;;;;;;;26.67;15.60;;;14.00;1.00;;;;;;5054951;28;20698;-81
2022/03/21 12:46:14;;;;;;;35.07;14.67;;;14.10;1.00;;;;;;5055151;28;20201;-83
2022/03/21 12:48:42;;;;;;;29.23;15.97;;;14.10;1.00;;;;;;5055262;28;20209;-83
2022/03/21 12:51:11;;;;;;;25.47;13.40;;;14.20;1.00;;;;;;5056892;28;20251;-84
2022/03/21 12:53:56;;;;;;;23.60;15.80;;;14.20;1.00;;;;;;5057153;28;20212;-82
2022/03/21 12:56:28;;;;;;;20.47;12.90;;;14.20;1.00;;;;;;5056132;28;20186;-83
2022/03/21 12:59:10;;;;;;;26.03;13.37;;;14.20;1.00;;;;;;5059108;28;20206;-83
2022/03/21 13:01:46;;;;;;;21.27;12.73;;;14.20;1.00;;;;;;5061283;28;20205;-82
2022/03/21 13:12:42;;;;;;;23.00;11.23;;;14.40;1.00;;;;;;5058719;28;20244;-82
2022/03/21 13:15:13;;;;;;;22.43;14.83;;;14.40;1.00;;;;;;5059302;28;20198;-86
2022/03/21 13:17:57;;;;;;;20.83;12.00;;;14.30;1.00;;;;;;5056197;28;20186;-81
2022/03/21 13:20:29;;;;;;;19.27;12.13;;;14.30;1.00;;;;;;5059695;28;20187;-85
2022/03/21 13:22:58;;;;;;;23.63;15.70;;;14.30;1.00;;;;;;5058431;28;20180;-83
2022/03/21 13:25:27;;;;;;;21.07;13.07;;;14.30;1.00;;;;;;5060321;28;20210;-85